sensor_id;sensor_type;location;lat;lon;timestamp;pressure;altitude;pressure_sealevel;temperature;humidity
79131;BME280;68530;45.194;9.142;2023-05-07T00:01:37;100636.69;;;20.34;47.10
79131;BME280;68530;45.194;9.142;2023-05-07T00:04:02;100640.63;;;20.41;46.63
79131;BME280;68530;45.194;9.142;2023-05-07T00:06:29;100643.19;;;20.42;46.58
79131;BME280;68530;45.194;9.142;2023-05-07T00:08:55;100652.69;;;20.47;46.53
79131;BME280;68530;45.194;9.142;2023-05-07T00:11:21;100644.88;;;20.32;46.10
79131;BME280;68530;45.194;9.142;2023-05-07T00:13:47;100663.88;;;20.40;46.74
79131;BME280;68530;45.194;9.142;2023-05-07T00:16:13;100669.31;;;20.39;46.37
79131;BME280;68530;45.194;9.142;2023-05-07T00:18:38;100661.94;;;20.42;46.50
79131;BME280;68530;45.194;9.142;2023-05-07T00:21:04;100662.47;;;20.23;45.89
79131;BME280;68530;45.194;9.142;2023-05-07T00:23:29;100663.81;;;20.29;46.31
79131;BME280;68530;45.194;9.142;2023-05-07T00:25:55;100667.22;;;20.31;46.29
79131;BME280;68530;45.194;9.142;2023-05-07T00:28:20;100666.88;;;20.36;46.20
79131;BME280;68530;45.194;9.142;2023-05-07T00:30:46;100673.34;;;20.33;46.02
79131;BME280;68530;45.194;9.142;2023-05-07T00:33:11;100671.84;;;20.29;46.46
79131;BME280;68530;45.194;9.142;2023-05-07T00:35:37;100673.56;;;20.30;46.48
79131;BME280;68530;45.194;9.142;2023-05-07T00:38:02;100677.22;;;20.29;46.58
79131;BME280;68530;45.194;9.142;2023-05-07T00:40:27;100669.91;;;20.31;46.18
79131;BME280;68530;45.194;9.142;2023-05-07T00:42:53;100669.31;;;20.27;46.02
79131;BME280;68530;45.194;9.142;2023-05-07T00:45:28;100675.41;;;20.29;45.70
79131;BME280;68530;45.194;9.142;2023-05-07T00:47:58;100667.59;;;20.26;46.37
79131;BME280;68530;45.194;9.142;2023-05-07T00:50:25;100673.56;;;20.30;46.26
79131;BME280;68530;45.194;9.142;2023-05-07T00:52:51;100669.91;;;20.31;45.83
79131;BME280;68530;45.194;9.142;2023-05-07T00:55:17;100673.84;;;20.38;46.73
79131;BME280;68530;45.194;9.142;2023-05-07T00:57:43;100668.09;;;20.32;46.40
79131;BME280;68530;45.194;9.142;2023-05-07T01:00:10;100663.41;;;20.22;45.48
79131;BME280;68530;45.194;9.142;2023-05-07T01:02:38;100664.53;;;20.20;45.14
79131;BME280;68530;45.194;9.142;2023-05-07T01:05:05;100655.22;;;20.12;45.63
79131;BME280;68530;45.194;9.142;2023-05-07T01:07:32;100660.75;;;20.22;45.74
79131;BME280;68530;45.194;9.142;2023-05-07T01:09:59;100652.13;;;20.19;45.05
79131;BME280;68530;45.194;9.142;2023-05-07T01:12:25;100637.84;;;20.18;45.06
79131;BME280;68530;45.194;9.142;2023-05-07T01:14:51;100657.72;;;20.27;45.00
79131;BME280;68530;45.194;9.142;2023-05-07T01:17:17;100660.38;;;20.15;44.69
79131;BME280;68530;45.194;9.142;2023-05-07T01:19:42;100650.66;;;20.26;44.62
79131;BME280;68530;45.194;9.142;2023-05-07T01:22:09;100667.22;;;20.31;45.53
79131;BME280;68530;45.194;9.142;2023-05-07T01:24:36;100667.03;;;20.34;46.00
79131;BME280;68530;45.194;9.142;2023-05-07T01:27:02;100663.47;;;20.34;45.12
79131;BME280;68530;45.194;9.142;2023-05-07T01:29:28;100656.66;;;20.29;44.70
79131;BME280;68530;45.194;9.142;2023-05-07T01:31:55;100663.38;;;20.35;44.80
79131;BME280;68530;45.194;9.142;2023-05-07T01:34:24;100656.06;;;20.37;45.74
79131;BME280;68530;45.194;9.142;2023-05-07T01:36:53;100655.44;;;20.34;44.78
79131;BME280;68530;45.194;9.142;2023-05-07T01:39:20;100661.28;;;20.39;45.30
79131;BME280;68530;45.194;9.142;2023-05-07T01:41:46;100662.16;;;20.39;44.53
79131;BME280;68530;45.194;9.142;2023-05-07T01:44:12;100661.63;;;20.23;44.15
79131;BME280;68530;45.194;9.142;2023-05-07T01:46:38;100673.13;;;20.36;44.47
79131;BME280;68530;45.194;9.142;2023-05-07T01:49:03;100671.16;;;20.38;44.63
79131;BME280;68530;45.194;9.142;2023-05-07T01:51:29;100670.53;;;20.35;44.71
79131;BME280;68530;45.194;9.142;2023-05-07T01:53:55;100668.72;;;20.35;44.69
79131;BME280;68530;45.194;9.142;2023-05-07T01:56:21;100672.63;;;20.42;44.98
79131;BME280;68530;45.194;9.142;2023-05-07T01:58:46;100669.00;;;20.43;45.00
79131;BME280;68530;45.194;9.142;2023-05-07T02:01:13;100661.09;;;20.42;45.09
79131;BME280;68530;45.194;9.142;2023-05-07T02:03:39;100666.44;;;20.42;44.88
79131;BME280;68530;45.194;9.142;2023-05-07T02:06:05;100671.06;;;20.40;45.13
79131;BME280;68530;45.194;9.142;2023-05-07T02:08:30;100658.50;;;20.40;44.79
79131;BME280;68530;45.194;9.142;2023-05-07T02:10:56;100660.22;;;20.41;44.67
79131;BME280;68530;45.194;9.142;2023-05-07T02:13:21;100668.00;;;20.44;45.14
79131;BME280;68530;45.194;9.142;2023-05-07T02:15:47;100668.53;;;20.50;45.73
79131;BME280;68530;45.194;9.142;2023-05-07T02:18:16;100673.53;;;20.54;45.18
79131;BME280;68530;45.194;9.142;2023-05-07T02:20:41;100673.25;;;20.46;45.45
79131;BME280;68530;45.194;9.142;2023-05-07T02:23:07;100686.72;;;20.57;45.30
79131;BME280;68530;45.194;9.142;2023-05-07T02:25:32;100688.41;;;20.58;45.69
79131;BME280;68530;45.194;9.142;2023-05-07T02:27:57;100702.66;;;20.59;45.46
79131;BME280;68530;45.194;9.142;2023-05-07T02:30:23;100700.94;;;20.58;46.70
79131;BME280;68530;45.194;9.142;2023-05-07T02:32:48;100697.44;;;20.57;46.32
79131;BME280;68530;45.194;9.142;2023-05-07T02:35:14;100700.88;;;20.47;47.12
79131;BME280;68530;45.194;9.142;2023-05-07T02:37:40;100712.47;;;20.47;49.18
79131;BME280;68530;45.194;9.142;2023-05-07T02:40:06;100706.72;;;20.40;47.97
79131;BME280;68530;45.194;9.142;2023-05-07T02:42:31;100706.16;;;20.24;49.15
79131;BME280;68530;45.194;9.142;2023-05-07T02:44:57;100714.09;;;20.25;50.30
79131;BME280;68530;45.194;9.142;2023-05-07T02:47:22;100714.19;;;20.24;50.17
79131;BME280;68530;45.194;9.142;2023-05-07T02:49:47;100717.84;;;20.23;51.02
79131;BME280;68530;45.194;9.142;2023-05-07T02:52:13;100710.47;;;20.13;51.54
79131;BME280;68530;45.194;9.142;2023-05-07T02:54:38;100714.03;;;20.14;51.88
79131;BME280;68530;45.194;9.142;2023-05-07T02:57:03;100706.78;;;20.03;51.19
79131;BME280;68530;45.194;9.142;2023-05-07T02:59:29;100710.22;;;20.05;52.39
79131;BME280;68530;45.194;9.142;2023-05-07T03:01:54;100705.41;;;19.97;51.92
79131;BME280;68530;45.194;9.142;2023-05-07T03:04:19;100703.81;;;19.95;52.15
79131;BME280;68530;45.194;9.142;2023-05-07T03:06:45;100700.28;;;19.94;52.04
79131;BME280;68530;45.194;9.142;2023-05-07T03:09:10;100697.91;;;19.90;52.88
79131;BME280;68530;45.194;9.142;2023-05-07T03:11:36;100694.50;;;19.87;54.07
79131;BME280;68530;45.194;9.142;2023-05-07T03:14:01;100695.16;;;19.78;53.33
79131;BME280;68530;45.194;9.142;2023-05-07T03:16:27;100701.47;;;19.77;53.61
79131;BME280;68530;45.194;9.142;2023-05-07T03:18:52;100695.38;;;19.75;53.18
79131;BME280;68530;45.194;9.142;2023-05-07T03:21:18;100696.91;;;19.66;53.96
79131;BME280;68530;45.194;9.142;2023-05-07T03:23:43;100694.13;;;19.68;52.75
79131;BME280;68530;45.194;9.142;2023-05-07T03:26:09;100698.84;;;19.64;54.35
79131;BME280;68530;45.194;9.142;2023-05-07T03:28:34;100705.03;;;19.65;54.29
79131;BME280;68530;45.194;9.142;2023-05-07T03:31:00;100716.69;;;19.64;53.61
79131;BME280;68530;45.194;9.142;2023-05-07T03:33:25;100721.31;;;19.62;54.49
79131;BME280;68530;45.194;9.142;2023-05-07T03:35:52;100720.25;;;19.64;53.78
79131;BME280;68530;45.194;9.142;2023-05-07T03:38:17;100726.75;;;19.73;53.84
79131;BME280;68530;45.194;9.142;2023-05-07T03:40:43;100715.63;;;19.66;54.00
79131;BME280;68530;45.194;9.142;2023-05-07T03:43:08;100732.84;;;19.75;54.32
79131;BME280;68530;45.194;9.142;2023-05-07T03:45:34;100726.66;;;19.74;54.12
79131;BME280;68530;45.194;9.142;2023-05-07T03:47:59;100741.19;;;19.83;54.15
79131;BME280;68530;45.194;9.142;2023-05-07T03:50:24;100743.88;;;19.83;54.28
79131;BME280;68530;45.194;9.142;2023-05-07T03:52:50;100740.31;;;19.83;53.73
79131;BME280;68530;45.194;9.142;2023-05-07T03:55:15;100741.50;;;19.79;54.32
79131;BME280;68530;45.194;9.142;2023-05-07T03:57:40;100739.69;;;19.79;55.00
79131;BME280;68530;45.194;9.142;2023-05-07T04:00:06;100743.53;;;19.75;55.12
79131;BME280;68530;45.194;9.142;2023-05-07T04:02:32;100733.72;;;19.76;55.03
79131;BME280;68530;45.194;9.142;2023-05-07T04:04:58;100744.19;;;19.79;54.61
79131;BME280;68530;45.194;9.142;2023-05-07T04:07:23;100737.75;;;19.81;54.29
79131;BME280;68530;45.194;9.142;2023-05-07T04:09:49;100726.44;;;19.65;54.60
79131;BME280;68530;45.194;9.142;2023-05-07T04:12:14;100732.00;;;19.74;55.22
79131;BME280;68530;45.194;9.142;2023-05-07T04:14:40;100737.97;;;19.78;54.84
79131;BME280;68530;45.194;9.142;2023-05-07T04:17:05;100734.88;;;19.84;54.99
79131;BME280;68530;45.194;9.142;2023-05-07T04:19:33;100734.34;;;19.92;54.17
79131;BME280;68530;45.194;9.142;2023-05-07T04:21:58;100724.25;;;19.96;54.13
79131;BME280;68530;45.194;9.142;2023-05-07T04:24:23;100725.97;;;19.97;54.30
79131;BME280;68530;45.194;9.142;2023-05-07T04:26:49;100713.44;;;19.97;53.60
79131;BME280;68530;45.194;9.142;2023-05-07T04:29:16;100725.63;;;20.01;53.79
79131;BME280;68530;45.194;9.142;2023-05-07T04:31:41;100718.69;;;19.99;53.48
79131;BME280;68530;45.194;9.142;2023-05-07T04:34:12;100715.06;;;20.00;53.72
79131;BME280;68530;45.194;9.142;2023-05-07T04:36:38;100705.19;;;20.00;53.44
79131;BME280;68530;45.194;9.142;2023-05-07T04:39:04;100714.81;;;20.03;53.59
79131;BME280;68530;45.194;9.142;2023-05-07T04:41:29;100712.88;;;20.05;54.31
79131;BME280;68530;45.194;9.142;2023-05-07T04:43:55;100703.88;;;20.06;54.31
79131;BME280;68530;45.194;9.142;2023-05-07T04:46:22;100693.50;;;20.01;54.01
79131;BME280;68530;45.194;9.142;2023-05-07T04:48:47;100708.25;;;20.07;54.08
79131;BME280;68530;45.194;9.142;2023-05-07T04:51:12;100706.78;;;20.03;55.08
79131;BME280;68530;45.194;9.142;2023-05-07T04:53:38;100700.06;;;19.97;55.83
79131;BME280;68530;45.194;9.142;2023-05-07T04:56:03;100708.81;;;19.99;55.64
79131;BME280;68530;45.194;9.142;2023-05-07T04:58:29;100715.25;;;19.97;55.77
79131;BME280;68530;45.194;9.142;2023-05-07T05:00:57;100717.41;;;19.92;56.99
79131;BME280;68530;45.194;9.142;2023-05-07T05:03:23;100724.03;;;19.86;56.74
79131;BME280;68530;45.194;9.142;2023-05-07T05:05:51;100734.22;;;19.81;56.67
79131;BME280;68530;45.194;9.142;2023-05-07T05:08:17;100742.56;;;19.76;57.81
79131;BME280;68530;45.194;9.142;2023-05-07T05:10:43;100736.25;;;19.77;58.15
79131;BME280;68530;45.194;9.142;2023-05-07T05:13:09;100732.09;;;19.73;57.48
79131;BME280;68530;45.194;9.142;2023-05-07T05:15:35;100752.03;;;19.69;57.52
79131;BME280;68530;45.194;9.142;2023-05-07T05:18:00;100755.03;;;19.64;57.38
79131;BME280;68530;45.194;9.142;2023-05-07T05:20:26;100747.75;;;19.66;57.19
79131;BME280;68530;45.194;9.142;2023-05-07T05:22:51;100755.13;;;19.63;57.32
79131;BME280;68530;45.194;9.142;2023-05-07T05:25:16;100746.56;;;19.57;57.59
79131;BME280;68530;45.194;9.142;2023-05-07T05:27:42;100748.94;;;19.62;56.93
79131;BME280;68530;45.194;9.142;2023-05-07T05:30:07;100744.78;;;19.58;56.80
79131;BME280;68530;45.194;9.142;2023-05-07T05:32:33;100733.94;;;19.59;56.64
79131;BME280;68530;45.194;9.142;2023-05-07T05:34:58;100746.91;;;19.66;56.28
79131;BME280;68530;45.194;9.142;2023-05-07T05:37:24;100746.53;;;19.70;57.00
79131;BME280;68530;45.194;9.142;2023-05-07T05:39:50;100750.94;;;19.84;56.30
79131;BME280;68530;45.194;9.142;2023-05-07T05:42:15;100748.84;;;19.88;56.67
79131;BME280;68530;45.194;9.142;2023-05-07T05:44:40;100743.63;;;19.86;56.04
79131;BME280;68530;45.194;9.142;2023-05-07T05:47:06;100747.03;;;20.01;55.92
79131;BME280;68530;45.194;9.142;2023-05-07T05:49:31;100747.50;;;19.95;56.44
79131;BME280;68530;45.194;9.142;2023-05-07T05:51:57;100749.06;;;19.98;56.02
79131;BME280;68530;45.194;9.142;2023-05-07T05:54:22;100749.06;;;19.98;56.41
79131;BME280;68530;45.194;9.142;2023-05-07T05:56:47;100746.81;;;20.05;56.86
79131;BME280;68530;45.194;9.142;2023-05-07T05:59:13;100749.66;;;20.14;56.03
79131;BME280;68530;45.194;9.142;2023-05-07T06:01:39;100743.38;;;20.15;56.75
79131;BME280;68530;45.194;9.142;2023-05-07T06:04:04;100732.75;;;20.14;57.03
79131;BME280;68530;45.194;9.142;2023-05-07T06:06:29;100729.44;;;20.10;56.76
79131;BME280;68530;45.194;9.142;2023-05-07T06:08:57;100723.81;;;20.02;57.32
79131;BME280;68530;45.194;9.142;2023-05-07T06:11:22;100719.31;;;20.02;57.38
79131;BME280;68530;45.194;9.142;2023-05-07T06:13:48;100729.78;;;20.06;57.21
79131;BME280;68530;45.194;9.142;2023-05-07T06:16:14;100729.03;;;20.04;57.40
79131;BME280;68530;45.194;9.142;2023-05-07T06:18:40;100722.94;;;20.01;57.65
79131;BME280;68530;45.194;9.142;2023-05-07T06:21:05;100740.91;;;20.12;57.60
79131;BME280;68530;45.194;9.142;2023-05-07T06:23:30;100742.59;;;20.13;57.59
79131;BME280;68530;45.194;9.142;2023-05-07T06:25:56;100707.44;;;19.94;57.58
79131;BME280;68530;45.194;9.142;2023-05-07T06:28:21;100745.41;;;20.12;57.60
79131;BME280;68530;45.194;9.142;2023-05-07T06:30:46;100731.84;;;20.02;57.90
79131;BME280;68530;45.194;9.142;2023-05-07T06:33:13;100753.31;;;20.13;57.93
79131;BME280;68530;45.194;9.142;2023-05-07T06:35:39;100764.03;;;20.13;58.01
79131;BME280;68530;45.194;9.142;2023-05-07T06:38:04;100760.38;;;20.14;57.99
79131;BME280;68530;45.194;9.142;2023-05-07T06:40:30;100763.06;;;20.14;57.99
79131;BME280;68530;45.194;9.142;2023-05-07T06:42:55;100758.91;;;20.10;57.38
79131;BME280;68530;45.194;9.142;2023-05-07T06:45:21;100753.66;;;20.09;57.41
79131;BME280;68530;45.194;9.142;2023-05-07T06:47:46;100759.03;;;20.09;57.33
79131;BME280;68530;45.194;9.142;2023-05-07T06:50:11;100771.78;;;20.05;57.46
79131;BME280;68530;45.194;9.142;2023-05-07T06:52:37;100762.78;;;20.06;57.41
79131;BME280;68530;45.194;9.142;2023-05-07T06:55:02;100768.75;;;20.10;57.38
79131;BME280;68530;45.194;9.142;2023-05-07T06:57:28;100766.13;;;20.21;57.42
79131;BME280;68530;45.194;9.142;2023-05-07T06:59:53;100766.91;;;20.23;58.07
79131;BME280;68530;45.194;9.142;2023-05-07T07:02:18;100774.72;;;20.26;58.40
79131;BME280;68530;45.194;9.142;2023-05-07T07:04:44;100775.31;;;20.30;58.61
79131;BME280;68530;45.194;9.142;2023-05-07T07:07:10;100775.53;;;20.27;58.48
79131;BME280;68530;45.194;9.142;2023-05-07T07:09:35;100775.44;;;20.28;58.62
79131;BME280;68530;45.194;9.142;2023-05-07T07:12:00;100777.66;;;20.35;58.59
79131;BME280;68530;45.194;9.142;2023-05-07T07:14:26;100784.16;;;20.43;58.43
79131;BME280;68530;45.194;9.142;2023-05-07T07:16:51;100784.69;;;20.49;58.43
79131;BME280;68530;45.194;9.142;2023-05-07T07:19:17;100778.88;;;20.55;59.26
79131;BME280;68530;45.194;9.142;2023-05-07T07:21:42;100778.28;;;20.63;59.79
79131;BME280;68530;45.194;9.142;2023-05-07T07:24:07;100770.38;;;20.37;59.59
79131;BME280;68530;45.194;9.142;2023-05-07T07:26:33;100779.94;;;20.52;59.02
79131;BME280;68530;45.194;9.142;2023-05-07T07:28:58;100775.69;;;20.50;58.87
79131;BME280;68530;45.194;9.142;2023-05-07T07:31:23;100757.09;;;20.35;58.00
79131;BME280;68530;45.194;9.142;2023-05-07T07:33:49;100784.47;;;20.52;58.27
79131;BME280;68530;45.194;9.142;2023-05-07T07:36:15;100772.63;;;20.54;58.84
79131;BME280;68530;45.194;9.142;2023-05-07T07:38:40;100783.00;;;20.59;57.87
79131;BME280;68530;45.194;9.142;2023-05-07T07:41:08;100781.22;;;20.59;57.93
79131;BME280;68530;45.194;9.142;2023-05-07T07:43:33;100776.00;;;20.69;57.50
79131;BME280;68530;45.194;9.142;2023-05-07T07:45:58;100774.06;;;20.71;58.03
79131;BME280;68530;45.194;9.142;2023-05-07T07:48:24;100777.38;;;20.75;57.53
79131;BME280;68530;45.194;9.142;2023-05-07T07:50:50;100768.38;;;20.76;56.66
79131;BME280;68530;45.194;9.142;2023-05-07T07:53:16;100778.22;;;20.76;57.15
79131;BME280;68530;45.194;9.142;2023-05-07T07:55:42;100782.78;;;20.86;56.50
79131;BME280;68530;45.194;9.142;2023-05-07T07:58:07;100780.25;;;20.85;56.75
79131;BME280;68530;45.194;9.142;2023-05-07T08:00:33;100784.63;;;20.97;56.35
79131;BME280;68530;45.194;9.142;2023-05-07T08:02:58;100782.88;;;21.09;56.62
79131;BME280;68530;45.194;9.142;2023-05-07T08:05:24;100782.38;;;21.15;56.28
79131;BME280;68530;45.194;9.142;2023-05-07T08:07:50;100782.28;;;21.28;55.56
79131;BME280;68530;45.194;9.142;2023-05-07T08:10:17;100775.44;;;21.24;55.55
79131;BME280;68530;45.194;9.142;2023-05-07T08:12:49;100774.97;;;21.30;55.79
79131;BME280;68530;45.194;9.142;2023-05-07T08:15:15;100777.81;;;21.40;55.14
79131;BME280;68530;45.194;9.142;2023-05-07T08:17:41;100780.84;;;21.47;55.81
79131;BME280;68530;45.194;9.142;2023-05-07T08:20:07;100788.78;;;21.49;54.58
79131;BME280;68530;45.194;9.142;2023-05-07T08:22:34;100785.84;;;21.52;53.65
79131;BME280;68530;45.194;9.142;2023-05-07T08:25:00;100780.63;;;21.50;54.41
79131;BME280;68530;45.194;9.142;2023-05-07T08:27:25;100780.59;;;21.62;54.55
79131;BME280;68530;45.194;9.142;2023-05-07T08:29:51;100770.13;;;21.58;54.19
79131;BME280;68530;45.194;9.142;2023-05-07T08:32:16;100774.81;;;21.68;53.87
79131;BME280;68530;45.194;9.142;2023-05-07T08:34:41;100780.38;;;21.65;53.60
79131;BME280;68530;45.194;9.142;2023-05-07T08:37:06;100778.66;;;21.64;53.39
79131;BME280;68530;45.194;9.142;2023-05-07T08:39:32;100768.88;;;21.63;54.12
79131;BME280;68530;45.194;9.142;2023-05-07T08:42:00;100782.72;;;21.69;54.10
79131;BME280;68530;45.194;9.142;2023-05-07T08:44:26;100771.00;;;21.70;53.41
79131;BME280;68530;45.194;9.142;2023-05-07T08:46:53;100785.28;;;21.82;53.39
79131;BME280;68530;45.194;9.142;2023-05-07T08:49:21;100771.97;;;21.81;52.96
79131;BME280;68530;45.194;9.142;2023-05-07T08:51:46;100770.88;;;21.83;53.54
79131;BME280;68530;45.194;9.142;2023-05-07T08:54:15;100776.72;;;21.89;53.03
79131;BME280;68530;45.194;9.142;2023-05-07T08:56:41;100773.06;;;21.90;52.60
79131;BME280;68530;45.194;9.142;2023-05-07T08:59:07;100775.50;;;21.93;52.46
79131;BME280;68530;45.194;9.142;2023-05-07T09:01:32;100758.66;;;22.02;53.56
79131;BME280;68530;45.194;9.142;2023-05-07T09:04:00;100755.00;;;22.03;53.26
79131;BME280;68530;45.194;9.142;2023-05-07T09:06:25;100766.66;;;22.13;54.27
79131;BME280;68530;45.194;9.142;2023-05-07T09:08:53;100765.56;;;22.16;53.53
79131;BME280;68530;45.194;9.142;2023-05-07T09:11:22;100763.25;;;22.11;54.00
79131;BME280;68530;45.194;9.142;2023-05-07T09:13:48;100764.75;;;22.16;53.93
79131;BME280;68530;45.194;9.142;2023-05-07T09:16:15;100768.88;;;22.20;54.05
79131;BME280;68530;45.194;9.142;2023-05-07T09:18:42;100759.09;;;22.19;53.67
79131;BME280;68530;45.194;9.142;2023-05-07T09:21:10;100756.69;;;22.16;53.27
79131;BME280;68530;45.194;9.142;2023-05-07T09:23:35;100745.06;;;22.15;53.04
79131;BME280;68530;45.194;9.142;2023-05-07T09:26:01;100749.81;;;22.23;52.95
79131;BME280;68530;45.194;9.142;2023-05-07T09:28:27;100742.28;;;22.17;53.06
79131;BME280;68530;45.194;9.142;2023-05-07T09:30:52;100755.91;;;22.25;53.18
79131;BME280;68530;45.194;9.142;2023-05-07T09:33:18;100744.78;;;22.29;53.43
79131;BME280;68530;45.194;9.142;2023-05-07T09:35:43;100751.97;;;22.29;52.90
79131;BME280;68530;45.194;9.142;2023-05-07T09:38:08;100750.06;;;22.20;52.55
79131;BME280;68530;45.194;9.142;2023-05-07T09:40:34;100751.78;;;22.21;52.63
79131;BME280;68530;45.194;9.142;2023-05-07T09:43:13;100759.81;;;22.32;52.53
79131;BME280;68530;45.194;9.142;2023-05-07T09:45:38;100754.44;;;22.32;52.64
79131;BME280;68530;45.194;9.142;2023-05-07T09:48:05;100753.53;;;22.43;52.21
79131;BME280;68530;45.194;9.142;2023-05-07T09:50:48;100758.06;;;22.42;52.22
79131;BME280;68530;45.194;9.142;2023-05-07T09:53:15;100752.94;;;22.51;52.42
79131;BME280;68530;45.194;9.142;2023-05-07T09:55:43;100745.59;;;22.53;51.97
79131;BME280;68530;45.194;9.142;2023-05-07T09:58:09;100748.28;;;22.41;51.62
79131;BME280;68530;45.194;9.142;2023-05-07T10:00:35;100748.88;;;22.45;51.79
79131;BME280;68530;45.194;9.142;2023-05-07T10:03:01;100750.72;;;22.45;50.85
79131;BME280;68530;45.194;9.142;2023-05-07T10:05:27;100752.31;;;22.36;50.25
79131;BME280;68530;45.194;9.142;2023-05-07T10:07:52;100752.94;;;22.39;50.79
79131;BME280;68530;45.194;9.142;2023-05-07T10:10:18;100746.59;;;22.40;50.38
79131;BME280;68530;45.194;9.142;2023-05-07T10:12:44;100743.50;;;22.45;50.83
79131;BME280;68530;45.194;9.142;2023-05-07T10:15:11;100738.78;;;22.49;50.63
79131;BME280;68530;45.194;9.142;2023-05-07T10:17:38;100724.56;;;22.47;50.84
79131;BME280;68530;45.194;9.142;2023-05-07T10:20:05;100741.13;;;22.63;49.97
79131;BME280;68530;45.194;9.142;2023-05-07T10:22:37;100742.94;;;22.74;51.15
79131;BME280;68530;45.194;9.142;2023-05-07T10:25:06;100736.84;;;22.72;49.98
79131;BME280;68530;45.194;9.142;2023-05-07T10:27:36;100730.00;;;22.68;50.00
79131;BME280;68530;45.194;9.142;2023-05-07T10:35:02;100725.34;;;22.70;48.79
79131;BME280;68530;45.194;9.142;2023-05-07T10:37:28;100730.78;;;22.80;47.52
79131;BME280;68530;45.194;9.142;2023-05-07T10:39:54;100729.81;;;22.60;46.05
79131;BME280;68530;45.194;9.142;2023-05-07T10:42:20;100732.69;;;22.68;47.47
79131;BME280;68530;45.194;9.142;2023-05-07T10:44:45;100725.69;;;22.77;48.63
79131;BME280;68530;45.194;9.142;2023-05-07T10:47:12;100726.59;;;22.87;47.56
79131;BME280;68530;45.194;9.142;2023-05-07T10:54:43;100717.09;;;22.83;46.89
79131;BME280;68530;45.194;9.142;2023-05-07T10:59:53;100709.88;;;22.62;47.63
79131;BME280;68530;45.194;9.142;2023-05-07T11:02:19;100693.41;;;22.77;46.64
79131;BME280;68530;45.194;9.142;2023-05-07T11:04:44;100696.59;;;22.82;50.78
79131;BME280;68530;45.194;9.142;2023-05-07T11:07:26;100679.00;;;22.78;45.61
79131;BME280;68530;45.194;9.142;2023-05-07T11:10:02;100689.63;;;22.79;48.53
79131;BME280;68530;45.194;9.142;2023-05-07T11:15:11;100679.25;;;22.75;45.84
79131;BME280;68530;45.194;9.142;2023-05-07T11:17:56;100680.03;;;22.87;47.96
79131;BME280;68530;45.194;9.142;2023-05-07T11:26:03;100677.88;;;23.02;45.52
79131;BME280;68530;45.194;9.142;2023-05-07T11:28:37;100672.66;;;23.10;48.74
79131;BME280;68530;45.194;9.142;2023-05-07T11:31:03;100670.28;;;23.17;48.80
79131;BME280;68530;45.194;9.142;2023-05-07T11:33:30;100669.19;;;23.19;44.69
79131;BME280;68530;45.194;9.142;2023-05-07T11:35:56;100678.25;;;23.18;44.57
79131;BME280;68530;45.194;9.142;2023-05-07T11:38:22;100671.88;;;23.19;46.09
79131;BME280;68530;45.194;9.142;2023-05-07T11:40:49;100669.63;;;23.24;46.39
79131;BME280;68530;45.194;9.142;2023-05-07T11:43:15;100665.59;;;23.40;45.36
79131;BME280;68530;45.194;9.142;2023-05-07T11:45:40;100664.56;;;23.31;43.66
79131;BME280;68530;45.194;9.142;2023-05-07T11:48:06;100666.44;;;23.31;45.57
79131;BME280;68530;45.194;9.142;2023-05-07T11:50:31;100664.47;;;23.33;47.46
79131;BME280;68530;45.194;9.142;2023-05-07T11:52:57;100668.25;;;23.30;49.34
79131;BME280;68530;45.194;9.142;2023-05-07T11:55:24;100643.28;;;23.18;48.08
79131;BME280;68530;45.194;9.142;2023-05-07T11:57:51;100660.31;;;23.28;44.24
79131;BME280;68530;45.194;9.142;2023-05-07T12:00:16;100654.34;;;23.25;45.45
79131;BME280;68530;45.194;9.142;2023-05-07T12:02:43;100663.75;;;23.31;46.01
79131;BME280;68530;45.194;9.142;2023-05-07T12:05:08;100644.75;;;23.32;46.18
79131;BME280;68530;45.194;9.142;2023-05-07T12:07:34;100669.59;;;23.46;50.44
79131;BME280;68530;45.194;9.142;2023-05-07T12:10:03;100662.94;;;23.50;45.07
79131;BME280;68530;45.194;9.142;2023-05-07T12:12:29;100662.91;;;23.40;45.97
79131;BME280;68530;45.194;9.142;2023-05-07T12:14:55;100657.81;;;23.37;48.20
79131;BME280;68530;45.194;9.142;2023-05-07T12:17:20;100650.44;;;23.39;47.20
79131;BME280;68530;45.194;9.142;2023-05-07T12:19:46;100646.19;;;23.36;48.87
79131;BME280;68530;45.194;9.142;2023-05-07T12:22:12;100641.22;;;23.32;45.71
79131;BME280;68530;45.194;9.142;2023-05-07T12:24:57;100634.41;;;23.27;44.29
79131;BME280;68530;45.194;9.142;2023-05-07T12:27:22;100642.22;;;23.31;47.00
79131;BME280;68530;45.194;9.142;2023-05-07T12:29:49;100642.50;;;23.37;46.31
79131;BME280;68530;45.194;9.142;2023-05-07T12:32:16;100641.09;;;23.43;46.02
79131;BME280;68530;45.194;9.142;2023-05-07T12:34:42;100639.31;;;23.53;45.03
79131;BME280;68530;45.194;9.142;2023-05-07T12:37:07;100643.97;;;23.51;47.08
79131;BME280;68530;45.194;9.142;2023-05-07T12:39:33;100639.03;;;23.56;46.98
79131;BME280;68530;45.194;9.142;2023-05-07T12:41:59;100629.25;;;23.55;45.37
79131;BME280;68530;45.194;9.142;2023-05-07T12:44:26;100641.16;;;23.63;45.02
79131;BME280;68530;45.194;9.142;2023-05-07T12:46:53;100631.66;;;23.59;45.34
79131;BME280;68530;45.194;9.142;2023-05-07T12:49:19;100643.59;;;23.66;45.23
79131;BME280;68530;45.194;9.142;2023-05-07T12:51:47;100635.34;;;23.67;45.39
79131;BME280;68530;45.194;9.142;2023-05-07T12:54:12;100632.53;;;23.69;44.88
79131;BME280;68530;45.194;9.142;2023-05-07T12:56:39;100620.50;;;23.73;44.16
79131;BME280;68530;45.194;9.142;2023-05-07T12:59:05;100626.44;;;23.67;44.64
79131;BME280;68530;45.194;9.142;2023-05-07T13:01:31;100621.19;;;23.65;45.99
79131;BME280;68530;45.194;9.142;2023-05-07T13:04:00;100626.16;;;23.70;45.70
79131;BME280;68530;45.194;9.142;2023-05-07T13:06:26;100613.97;;;23.66;45.37